Accueil
METAR-TAF:

METAR-TAF

Aéroports :

Ostende, Belgique

Aéroport d'Ostende-Bruges

latitude: 51-12N, longitude: 002-52E, altitude: 4 m

Observation

Le bulletin a été fait il y a 15 minutes, à 10:20 UTC
Vent 12 kt de est/nord-est
Température 2°C
Humidité 64%
Pression 1024 hPa
Visibilité 10 km ou plus
pas de nuages en-dessous de 1500 mètres et pas de cumulonimbus.

METAR: EBOS 221020Z 07012KT CAVOK 02/M04 Q1024 NOSIG

Heure: 11:35 (10:35 UTC)

Prévision

Le bulletin a été fait il y a 5 heures et 33 minutes, à 05:02 UTC
Prévision valable du 22 à 06 UTC au 23 à 12 UTC
Vent 11 kt de est/nord-est
Visibilité: 7000 m
Probabilité 40% :
Temporairement
du 22 à 11 UTC au 22 à 17 UTC
Vent 15 kt de est/nord-est avec des rafales jusqu'à 25 kt

TAF: EBOS 220502Z 2206/2312 07011KT 7000 NSC PROB40 TEMPO 2211/2217 07015G25KT

Observations et prévisions météorologiques de plus de 4000 aéroports (messages METAR et TAF).

Les stations disponibles sont représentées par des disques jaunes et rouges sur la carte.

Passer la souris dessus pour voir le nom de la station.

Cliquer dessus pour voir les observations et prévisions météorologiques.

Pour changer de carte: cliquez sur les boutons verts avec une croix noire pour zoomer, sur le bouton vert avec un tiret pour effectuer un zoom arrière, ou sur les flèches vertes pour les cartes adjacentes.


METAR-TAF: